Gambier, Ohio
Current Conditions -  °F | °C
As of 7:57 PM on Monday 26 Jan 2015 (Local Time) from K4I3 Reporting Station
Light Snow Light Snow  
Wind Chill:   Ceiling: 1700
Heat Index: 16°   Visibility: 7mi
Dew Point: 10°   Wind: 5mph
Humidity: 79%   Direction: 330°NNW
Pressure: 29.9"   Gusts: NA
Location:  40.38°N, 82.4°W
Report Text: K4I3 270057Z AUTO 33004KT 7SM -SN OVC017 M09/M12 A2990 RMK AO2
Loading
Personal Weather Stations






























Interactive Weather Map New forecast layout! Learn more

10-Day Weather Forecast

Advertisements
Track Severe Weather on mobile